Time;durP1;ratioP1;P1;durP2;ratioP2;P2;SDS_P1;SDS_P2;PMS_P1;PMS_P2;Temp;Humidity;BMP_temperature;BMP_pressure;BME280_temperature;BME280_humidity;BME280_pressure;Samples;Min_cycle;Max_cycle;Signal;HPM_P1;HPM_P2
2021/07/19 00:01:53;;;;;;;;;0.00;0.00;;;;;27.64;43.05;101323.13;5057717;28;46149;-65
2021/07/19 00:04:19;;;;;;;;;0.00;0.00;;;;;27.63;43.82;101318.63;5056554;28;45537;-65
2021/07/19 00:06:45;;;;;;;;;0.00;0.00;;;;;27.63;43.68;101315.91;5057969;28;45459;-65
2021/07/19 00:09:11;;;;;;;;;0.00;0.00;;;;;27.62;43.24;101311.38;5057921;28;45418;-65
2021/07/19 00:11:38;;;;;;;;;0.00;0.00;;;;;27.63;43.13;101313.16;5057533;28;45879;-65
2021/07/19 00:14:05;;;;;;;;;0.00;0.00;;;;;27.62;43.73;101314.09;5057879;28;45434;-65
2021/07/19 00:16:32;;;;;;;;;0.00;0.00;;;;;27.61;43.17;101309.63;5056227;28;45491;-65
2021/07/19 00:18:57;;;;;;;;;0.00;0.00;;;;;27.61;43.25;101303.25;5057847;28;45413;-65
2021/07/19 00:21:23;;;;;;;;;0.00;0.00;;;;;27.62;43.43;101321.44;5057600;28;45320;-65
2021/07/19 00:23:48;;;;;;;;;0.00;0.00;;;;;27.61;43.85;101309.63;5057847;28;45440;-65
2021/07/19 00:26:14;;;;;;;;;0.00;0.00;;;;;27.60;43.30;101309.69;5057771;28;45466;-65
2021/07/19 00:28:41;;;;;;;;;0.00;0.00;;;;;27.59;43.23;101311.53;5057552;28;45453;-65
2021/07/19 00:31:06;;;;;;;;;0.00;0.00;;;;;27.58;43.66;101309.75;5057767;28;45843;-65
2021/07/19 00:33:32;;;;;;;;;0.00;0.00;;;;;27.58;43.61;101312.47;5039561;28;45375;-66
2021/07/19 00:35:57;;;;;;;;;0.00;0.00;;;;;27.58;43.69;101309.75;5057489;28;45764;-65
2021/07/19 00:38:22;;;;;;;;;0.00;0.00;;;;;27.57;43.21;101313.47;5057691;28;45967;-65
2021/07/19 00:40:49;;;;;;;;;0.00;0.00;;;;;27.58;43.24;101307.03;5056793;28;45441;-65
2021/07/19 00:43:15;;;;;;;;;0.00;0.00;;;;;27.56;43.65;101308.94;5057310;28;45509;-65
2021/07/19 00:45:40;;;;;;;;;0.00;0.00;;;;;27.56;43.20;101303.47;5057553;28;45647;-65
2021/07/19 00:48:06;;;;;;;;;0.00;0.00;;;;;27.53;43.92;101306.34;5055776;28;45545;-65
2021/07/19 00:50:35;;;;;;;;;0.00;0.00;;;;;27.57;43.11;101310.72;5057042;28;46333;-65
2021/07/19 00:53:02;;;;;;;;;0.00;0.00;;;;;27.56;43.80;101306.22;5056857;28;45529;-65
2021/07/19 00:55:38;;;;;;;;;0.00;0.00;;;;;27.56;43.27;101310.78;5057085;28;45414;-65
2021/07/19 00:58:05;;;;;;;;;0.00;0.00;;;;;27.54;43.18;101308.13;5057205;28;45424;-65
2021/07/19 01:00:32;;;;;;;;;0.00;0.00;;;;;27.54;43.40;101308.13;5056666;28;45498;-65
2021/07/19 01:02:59;;;;;;;;;0.00;0.00;;;;;27.53;43.32;101301.78;5056688;28;45870;-65
2021/07/19 01:05:27;;;;;;;;;0.00;0.00;;;;;27.53;43.50;101296.31;5055694;28;45564;-65
2021/07/19 01:07:53;;;;;;;;;0.00;0.00;;;;;27.53;43.40;101307.25;5056977;28;45140;-65
2021/07/19 01:10:19;;;;;;;;;0.00;0.00;;;;;27.52;43.87;101300.00;5056100;28;45687;-65
2021/07/19 01:12:47;;;;;;;;;0.00;0.00;;;;;27.52;43.89;101304.59;5056705;28;45422;-65
2021/07/19 01:15:13;;;;;;;;;0.00;0.00;;;;;27.51;44.05;101303.69;5056921;28;45449;-65
2021/07/19 01:17:40;;;;;;;;;0.00;0.00;;;;;27.50;43.79;101295.56;5055028;28;45395;-65
2021/07/19 01:20:06;;;;;;;;;0.00;0.00;;;;;27.50;43.72;101301.03;5056661;28;45993;-65
2021/07/19 01:22:52;;;;;;;;;0.00;0.00;;;;;27.50;43.52;101293.72;5056514;28;45419;-65
2021/07/19 01:25:36;;;;;;;;;0.00;0.00;;;;;27.49;43.97;101299.25;5056603;28;45836;-65
2021/07/19 01:28:07;;;;;;;;;0.00;0.00;;;;;27.48;44.07;101302.97;5056410;28;45416;-65
2021/07/19 01:30:38;;;;;;;;;0.00;0.00;;;;;27.46;43.74;101293.94;5056406;28;46647;-65
2021/07/19 01:33:05;;;;;;;;;0.00;0.00;;;;;27.48;43.52;101297.50;5056119;28;45393;-65
2021/07/19 01:35:36;;;;;;;;;0.00;0.00;;;;;27.47;44.19;101301.16;5056479;28;45453;-65
2021/07/19 01:38:05;;;;;;;;;0.00;0.00;;;;;27.44;43.90;101293.13;5038596;28;45448;-65
2021/07/19 01:40:31;;;;;;;;;0.00;0.00;;;;;27.45;44.15;101297.63;5055666;28;45482;-65
2021/07/19 01:42:58;;;;;;;;;0.00;0.00;;;;;27.43;43.49;101294.09;5055973;28;45441;-65
2021/07/19 01:45:23;;;;;;;;;0.00;0.00;;;;;27.44;43.60;101296.75;5056291;28;45433;-65
2021/07/19 01:47:50;;;;;;;;;0.00;0.00;;;;;27.44;44.13;101301.34;5056211;28;45516;-65
2021/07/19 01:50:16;;;;;;;;;0.00;0.00;;;;;27.44;43.94;101309.53;5055561;28;45421;-65
2021/07/19 01:52:43;;;;;;;;;1.00;0.00;;;;;27.42;43.50;101300.53;5056168;28;45408;-65
2021/07/19 01:55:09;;;;;;;;;0.00;0.00;;;;;27.42;43.92;101308.72;5038292;28;45469;-65
2021/07/19 01:57:36;;;;;;;;;0.00;0.00;;;;;27.42;43.63;101303.25;5055998;28;45416;-65
2021/07/19 02:00:07;;;;;;;;;0.00;0.00;;;;;27.40;43.64;101307.91;5055604;28;46781;-65
2021/07/19 02:02:35;;;;;;;;;0.00;0.00;;;;;27.41;43.67;101309.66;5047583;28;45489;-65
2021/07/19 02:05:01;;;;;;;;;0.00;0.00;;;;;27.41;43.67;101309.66;5055702;28;45785;-65
2021/07/19 02:07:28;;;;;;;;;0.00;0.00;;;;;27.41;44.30;101306.94;5055636;28;45504;-65
2021/07/19 02:09:53;;;;;;;;;1.67;1.67;;;;;27.40;44.19;101305.16;5056015;28;45705;-65
2021/07/19 02:12:20;;;;;;;;;0.00;0.00;;;;;27.40;44.05;101305.16;5055820;28;45916;-65
2021/07/19 02:14:46;;;;;;;;;0.00;0.00;;;;;27.39;44.07;101311.56;5055748;28;45443;-65
2021/07/19 02:17:13;;;;;;;;;1.33;0.00;;;;;27.37;43.71;101306.22;5055500;28;45421;-65
2021/07/19 02:19:41;;;;;;;;;0.25;0.00;;;;;27.38;43.64;101309.81;5055601;28;46413;-65
2021/07/19 02:22:07;;;;;;;;;0.50;0.50;;;;;27.38;43.76;101309.81;5055366;28;45453;-65
2021/07/19 02:24:34;;;;;;;;;0.00;0.00;;;;;27.38;43.77;101307.09;5054636;28;45457;-65
2021/07/19 02:27:00;;;;;;;;;0.00;0.00;;;;;27.37;44.34;101298.00;5037177;28;45588;-64
2021/07/19 02:29:27;;;;;;;;;0.00;0.00;;;;;27.37;43.73;101305.31;5054960;28;45433;-64
2021/07/19 02:31:53;;;;;;;;;0.00;0.00;;;;;27.33;43.96;101300.00;5055622;28;45467;-64
2021/07/19 02:34:19;;;;;;;;;0.00;0.00;;;;;27.36;43.91;101300.81;5055566;28;45362;-64
2021/07/19 02:36:47;;;;;;;;;0.00;0.00;;;;;27.36;44.40;101303.53;5056028;28;44892;-64
2021/07/19 02:39:14;;;;;;;;;0.00;0.00;;;;;27.32;44.36;101309.13;5055125;28;46210;-64
2021/07/19 02:41:46;;;;;;;;;0.00;0.00;;;;;27.33;44.13;101310.94;5055163;28;45440;-64
2021/07/19 02:44:14;;;;;;;;;0.00;0.00;;;;;27.31;43.98;101310.09;5055379;28;45493;-64
2021/07/19 02:46:41;;;;;;;;;0.00;0.00;;;;;27.33;44.43;101307.31;5055764;28;45390;-64
2021/07/19 02:49:10;;;;;;;;;0.00;0.00;;;;;27.34;44.33;101307.22;5055149;28;45513;-64
2021/07/19 02:51:38;;;;;;;;;0.00;0.00;;;;;27.31;43.93;101304.66;5055326;28;45391;-64
2021/07/19 02:54:04;;;;;;;;;0.00;0.00;;;;;27.31;44.32;101307.38;5055341;28;45789;-64
2021/07/19 02:56:34;;;;;;;;;0.00;0.00;;;;;27.30;43.95;101311.06;5054901;28;45449;-64
2021/07/19 02:59:02;;;;;;;;;0.00;0.00;;;;;27.32;44.49;101311.00;5037130;28;45771;-65
2021/07/19 03:01:29;;;;;;;;;0.00;0.00;;;;;27.32;44.36;101317.34;5055345;28;45593;-64
2021/07/19 03:03:57;;;;;;;;;0.00;0.00;;;;;27.30;44.72;101316.50;5054971;28;45555;-65
2021/07/19 03:06:27;;;;;;;;;0.00;0.00;;;;;27.30;44.39;101313.78;5055166;28;45461;-64
2021/07/19 03:08:55;;;;;;;;;0.00;0.00;;;;;27.29;43.91;101308.41;5054942;28;45801;-64
2021/07/19 03:11:39;;;;;;;;;0.00;0.00;;;;;27.28;44.51;101304.78;5055112;28;45433;-64
2021/07/19 03:14:15;;;;;;;;;0.00;0.00;;;;;27.27;44.45;101311.22;5054671;28;45382;-65
2021/07/19 03:16:44;;;;;;;;;0.00;0.00;;;;;27.25;44.05;101299.47;5054712;28;45365;-65
2021/07/19 03:19:13;;;;;;;;;0.00;0.00;;;;;27.27;44.45;101304.88;5052597;28;45726;-65
2021/07/19 03:21:40;;;;;;;;;0.00;0.00;;;;;27.26;43.93;101303.09;5054452;28;45508;-65
2021/07/19 03:24:08;;;;;;;;;0.00;0.00;;;;;27.25;44.41;101302.22;5054775;28;45358;-65
2021/07/19 03:26:37;;;;;;;;;0.00;0.00;;;;;27.25;44.08;101302.22;5053257;28;45355;-64
2021/07/19 03:29:04;;;;;;;;;0.00;0.00;;;;;27.25;44.10;101302.22;5036479;28;45469;-64
2021/07/19 03:31:31;;;;;;;;;0.00;0.00;;;;;27.25;43.88;101295.88;5054713;28;45472;-64
2021/07/19 03:33:57;;;;;;;;;0.00;0.00;;;;;27.23;44.15;101293.19;5019823;28;45403;-64
2021/07/19 03:36:24;;;;;;;;;0.00;0.00;;;;;27.25;44.15;101295.88;5054960;28;45927;-64
2021/07/19 03:38:51;;;;;;;;;0.00;0.00;;;;;27.24;44.20;101294.97;5054462;28;46616;-65
2021/07/19 03:41:17;;;;;;;;;0.00;0.00;;;;;27.22;44.24;101287.78;5057526;28;45547;-65
2021/07/19 03:43:44;;;;;;;;;0.00;0.00;;;;;27.23;43.98;101289.53;5058375;28;45527;-65
2021/07/19 03:46:11;;;;;;;;;0.00;0.00;;;;;27.22;44.41;101288.66;5058017;28;45398;-66
2021/07/19 03:48:37;;;;;;;;;0.00;0.00;;;;;27.22;43.88;101283.19;5057587;28;45456;-64
2021/07/19 03:51:03;;;;;;;;;0.00;0.00;;;;;27.21;44.38;101278.69;5039893;28;45483;-65
2021/07/19 03:53:30;;;;;;;;;0.00;0.00;;;;;27.21;44.62;101283.25;5057528;28;45428;-65
2021/07/19 03:55:58;;;;;;;;;0.00;0.00;;;;;27.20;44.13;101286.94;5057980;28;45821;-65
2021/07/19 03:58:24;;;;;;;;;0.00;0.00;;;;;27.20;44.21;101279.63;5057214;28;46147;-65
2021/07/19 04:00:51;;;;;;;;;0.00;0.00;;;;;27.17;44.51;101282.53;5057276;28;45433;-64
2021/07/19 04:03:23;;;;;;;;;0.00;0.00;;;;;27.19;44.29;101280.63;5057082;28;45406;-64
2021/07/19 04:05:55;;;;;;;;;0.00;0.00;;;;;27.19;44.73;101291.53;5057368;28;45480;-64
2021/07/19 04:08:22;;;;;;;;;0.00;0.00;;;;;27.19;44.28;101290.63;5057138;28;46224;-65
2021/07/19 04:10:50;;;;;;;;;0.00;0.00;;;;;27.17;44.37;101288.00;5057678;28;45501;-64
2021/07/19 04:13:16;;;;;;;;;0.00;0.00;;;;;27.17;44.19;101279.81;5057813;28;45492;-65
2021/07/19 04:15:46;;;;;;;;;0.00;0.00;;;;;27.17;44.27;101288.00;5057925;28;45464;-64
2021/07/19 04:18:12;;;;;;;;;0.00;0.00;;;;;27.15;44.11;101284.44;5055780;28;47296;-65
2021/07/19 04:20:41;;;;;;;;;0.00;0.00;;;;;27.16;44.29;101288.94;5057601;28;45927;-64
2021/07/19 04:23:12;;;;;;;;;0.00;0.00;;;;;27.15;44.65;101287.19;5057541;28;45480;-65
2021/07/19 04:25:38;;;;;;;;;0.00;0.00;;;;;27.16;44.18;101283.47;5057776;28;45461;-65
2021/07/19 04:28:05;;;;;;;;;0.00;0.00;;;;;27.16;44.69;101293.53;5057147;28;45953;-65
2021/07/19 04:30:35;;;;;;;;;0.00;0.00;;;;;27.16;44.26;101296.25;5056921;28;45516;-64
2021/07/19 04:33:01;;;;;;;;;0.00;0.00;;;;;27.14;44.74;101289.00;5057505;28;45480;-65
2021/07/19 04:35:27;;;;;;;;;0.00;0.00;;;;;27.14;44.61;101288.13;5038790;28;44985;-65
2021/07/19 04:37:53;;;;;;;;;0.00;0.00;;;;;27.16;44.12;101288.06;5057108;28;46814;-65
2021/07/19 04:40:20;;;;;;;;;0.00;0.00;;;;;27.14;44.28;101282.66;5057156;28;45446;-65
2021/07/19 04:42:46;;;;;;;;;0.00;0.00;;;;;27.14;44.66;101288.13;5057307;28;45436;-65
2021/07/19 04:45:16;;;;;;;;;0.00;0.00;;;;;27.13;44.73;101287.25;5057135;28;45457;-64
2021/07/19 04:47:42;;;;;;;;;0.00;0.00;;;;;27.12;44.69;101290.91;5057014;28;45453;-64
2021/07/19 04:50:08;;;;;;;;;0.00;0.00;;;;;27.11;44.86;101282.81;5056670;28;45741;-64
2021/07/19 04:52:35;;;;;;;;;0.00;0.00;;;;;27.12;44.39;101282.72;5056615;28;45481;-64
2021/07/19 04:55:03;;;;;;;;;0.00;0.00;;;;;27.13;44.45;101291.81;5057076;28;45474;-64
2021/07/19 04:57:29;;;;;;;;;0.00;0.00;;;;;27.11;44.34;101277.34;5038301;28;45513;-64
2021/07/19 04:59:57;;;;;;;;;0.00;0.00;;;;;27.12;44.61;101285.44;5056817;28;45508;-64
2021/07/19 05:02:27;;;;;;;;;0.00;0.00;;;;;27.13;44.32;101283.63;5056292;28;45749;-64
2021/07/19 05:04:54;;;;;;;;;0.00;0.00;;;;;27.12;44.85;101282.72;5056782;28;45366;-65
2021/07/19 05:07:22;;;;;;;;;0.00;0.00;;;;;27.14;44.87;101286.28;5056290;28;46610;-64
2021/07/19 05:09:48;;;;;;;;;0.00;0.00;;;;;27.12;44.67;101279.13;5056623;28;45468;-65
2021/07/19 05:12:16;;;;;;;;;0.00;0.00;;;;;27.14;44.49;101289.00;5056605;28;45513;-64
2021/07/19 05:14:42;;;;;;;;;0.00;0.00;;;;;27.15;44.90;101292.63;5056851;28;45399;-64
2021/07/19 05:17:12;;;;;;;;;0.00;0.00;;;;;27.16;44.45;101296.25;5056673;28;46947;-64
2021/07/19 05:19:39;;;;;;;;;0.00;0.00;;;;;27.16;44.18;101294.41;5056331;28;45736;-64
2021/07/19 05:22:15;;;;;;;;;0.00;0.00;;;;;27.17;44.48;101298.91;5056774;28;45437;-64
2021/07/19 05:24:42;;;;;;;;;0.00;0.00;;;;;27.18;44.77;101294.34;5056943;28;45386;-64
2021/07/19 05:27:10;;;;;;;;;0.00;0.00;;;;;27.18;44.29;101297.94;5056298;28;45798;-64
2021/07/19 05:29:37;;;;;;;;;0.00;0.00;;;;;27.18;44.66;101297.94;5055920;28;45503;-65
2021/07/19 05:32:06;;;;;;;;;0.00;0.00;;;;;27.20;44.11;101297.88;5056581;28;45436;-65
2021/07/19 05:34:32;;;;;;;;;0.00;0.00;;;;;27.21;44.51;101307.81;5056381;28;45334;-65
2021/07/19 05:36:58;;;;;;;;;0.00;0.00;;;;;27.19;44.30;101302.47;5056498;28;45764;-64
2021/07/19 05:39:24;;;;;;;;;0.00;0.00;;;;;27.21;44.55;101306.00;5056252;28;45434;-64
2021/07/19 05:41:50;;;;;;;;;0.00;0.00;;;;;27.22;44.07;101295.97;5056391;28;45353;-65
2021/07/19 05:44:15;;;;;;;;;0.00;0.00;;;;;27.24;44.35;101302.28;5055985;28;45389;-65
2021/07/19 05:46:41;;;;;;;;;0.00;0.00;;;;;27.25;44.50;101302.22;5055714;28;46172;-65
2021/07/19 05:49:06;;;;;;;;;0.00;0.00;;;;;27.25;44.54;101302.22;5055465;28;45660;-65
2021/07/19 05:51:32;;;;;;;;;0.00;0.00;;;;;27.26;44.11;101298.50;5055612;28;45480;-64
2021/07/19 05:54:01;;;;;;;;;0.00;0.00;;;;;27.27;44.28;101305.75;5055978;28;45457;-64
2021/07/19 05:56:26;;;;;;;;;0.00;0.00;;;;;27.27;44.38;101300.28;5037124;28;48077;-64
2021/07/19 05:58:52;;;;;;;;;0.00;0.00;;;;;27.29;44.67;101308.41;5054908;28;45049;-64
2021/07/19 06:01:17;;;;;;;;;0.00;0.00;;;;;27.28;44.80;101295.72;5055773;28;46079;-64
2021/07/19 06:03:42;;;;;;;;;0.00;0.00;;;;;27.29;44.15;101298.38;5055572;28;45972;-64
2021/07/19 06:06:09;;;;;;;;;0.00;0.00;;;;;27.31;44.21;101298.31;5055581;28;45772;-64
2021/07/19 06:08:35;;;;;;;;;0.00;0.00;;;;;27.32;44.53;101300.06;5055607;28;45438;-64
2021/07/19 06:11:00;;;;;;;;;0.00;0.00;;;;;27.31;44.31;101304.66;5055822;28;45704;-64
2021/07/19 06:13:25;;;;;;;;;1.00;0.00;;;;;27.33;44.51;101300.00;5037413;28;45809;-65
2021/07/19 06:15:51;;;;;;;;;2.00;2.00;;;;;27.33;44.21;101300.00;5055499;28;45920;-65
2021/07/19 06:18:17;;;;;;;;;0.00;0.00;;;;;27.33;44.56;101302.72;5036828;28;45470;-65
2021/07/19 06:20:42;;;;;;;;;0.33;0.33;;;;;27.37;44.14;101302.56;5055369;28;45432;-65
2021/07/19 06:23:08;;;;;;;;;0.00;0.00;;;;;27.38;44.70;101291.56;5055206;28;45806;-64
2021/07/19 06:25:36;;;;;;;;;5.00;5.00;;;;;27.37;44.29;101295.28;5036633;28;46291;-64
2021/07/19 06:28:04;;;;;;;;;8.00;7.67;;;;;27.23;44.89;101293.19;5055270;28;45366;-64
2021/07/19 06:30:30;;;;;;;;;14.00;10.67;;;;;27.03;44.86;101290.47;5055011;28;45443;-64
2021/07/19 06:32:56;;;;;;;;;13.67;13.67;;;;;26.86;45.15;101293.97;5055646;28;45449;-64
2021/07/19 06:35:22;;;;;;;;;8.33;8.33;;;;;26.68;45.42;101292.94;5054528;28;45578;-64
2021/07/19 06:37:47;;;;;;;;;10.33;10.33;;;;;26.56;45.71;101291.59;5054755;28;45891;-64
2021/07/19 06:40:13;;;;;;;;;12.33;11.00;;;;;26.49;45.82;101293.72;5053907;28;45550;-64
2021/07/19 06:42:38;;;;;;;;;13.67;11.00;;;;;26.43;46.10;101293.13;5054961;28;45507;-65
2021/07/19 06:45:06;;;;;;;;;9.33;9.33;;;;;26.38;46.06;101301.50;5054743;28;45481;-64
2021/07/19 06:47:32;;;;;;;;;12.00;11.00;;;;;26.26;46.77;101297.47;5054661;28;45355;-64
2021/07/19 06:49:57;;;;;;;;;12.67;12.33;;;;;26.11;46.45;101290.78;5055224;28;45858;-64
2021/07/19 06:52:24;;;;;;;;;10.00;9.33;;;;;25.99;46.67;101294.03;5037223;28;45462;-64
2021/07/19 06:54:50;;;;;;;;;11.33;11.33;;;;;25.81;46.84;101295.63;5054531;28;45430;-63
2021/07/19 06:57:17;;;;;;;;;10.67;10.67;;;;;25.69;47.39;101294.34;5036371;28;45479;-64
2021/07/19 06:59:42;;;;;;;;;10.67;10.67;;;;;25.62;47.66;101292.78;5055154;28;45433;-63
2021/07/19 07:02:08;;;;;;;;;10.67;10.67;;;;;25.62;47.75;101295.50;5054507;28;45852;-64
2021/07/19 07:04:34;;;;;;;;;10.00;10.00;;;;;25.66;47.79;101294.44;5054095;28;45513;-64
2021/07/19 07:07:03;;;;;;;;;10.00;10.00;;;;;25.71;48.09;101291.50;5054387;28;45007;-63
2021/07/19 07:09:29;;;;;;;;;12.33;10.33;;;;;25.75;48.01;101295.88;5054495;28;45448;-63
2021/07/19 07:11:54;;;;;;;;;12.00;11.00;;;;;25.79;47.97;101288.50;5054533;28;45372;-63
2021/07/19 07:14:20;;;;;;;;;9.67;9.67;;;;;25.82;47.96;101300.16;5053207;28;45496;-63
2021/07/19 07:16:46;;;;;;;;;10.67;10.67;;;;;25.88;48.06;101299.03;5044303;28;45401;-64
2021/07/19 07:19:18;;;;;;;;;12.67;12.67;;;;;25.90;48.22;101297.16;5025472;28;45509;-63
2021/07/19 07:21:44;;;;;;;;;10.33;9.00;;;;;25.91;48.00;101301.66;5052505;28;45477;-64
2021/07/19 07:24:09;;;;;;;;;9.33;8.67;;;;;25.94;48.18;101298.81;5055855;28;45478;-64
2021/07/19 07:26:35;;;;;;;;;10.00;10.00;;;;;25.99;48.09;101296.75;5038280;28;45330;-64
2021/07/19 07:29:02;;;;;;;;;12.00;11.67;;;;;26.00;48.14;101292.22;5047621;28;45412;-64
2021/07/19 07:31:27;;;;;;;;;14.33;14.33;;;;;26.02;47.91;101293.94;5039375;28;45465;-64
2021/07/19 07:33:57;;;;;;;;;10.00;10.00;;;;;26.04;47.70;101297.47;5058277;28;45814;-64
2021/07/19 07:36:24;;;;;;;;;9.67;9.67;;;;;26.05;47.70;101296.50;5057476;28;45986;-64
2021/07/19 07:38:50;;;;;;;;;10.33;10.00;;;;;26.03;47.64;101301.13;5038105;28;45432;-64
2021/07/19 07:41:16;;;;;;;;;9.00;9.00;;;;;26.03;47.90;101298.41;5050015;28;45429;-64
2021/07/19 07:43:41;;;;;;;;;10.67;10.00;;;;;26.05;47.76;101295.63;5057979;28;46282;-64
2021/07/19 07:46:07;;;;;;;;;12.00;11.67;;;;;26.05;47.21;101293.78;5057082;28;45458;-64
2021/07/19 07:48:35;;;;;;;;;11.33;11.33;;;;;26.04;47.35;101288.41;5059539;28;45685;-65
2021/07/19 07:51:01;;;;;;;;;8.67;8.67;;;;;26.07;47.45;101289.16;5058841;28;45462;-65
2021/07/19 07:53:26;;;;;;;;;10.00;10.00;;;;;26.13;47.41;101288.88;5039867;28;47467;-65
2021/07/19 07:55:51;;;;;;;;;11.00;11.00;;;;;26.18;46.75;101280.53;5058369;28;44895;-64
2021/07/19 07:58:17;;;;;;;;;9.67;9.67;;;;;26.17;46.50;101286.06;5066036;28;45402;-65
2021/07/19 08:00:42;;;;;;;;;9.33;9.33;;;;;26.14;46.30;101289.81;5078541;28;45452;-64
2021/07/19 08:03:08;;;;;;;;;6.67;6.67;;;;;26.12;46.66;101280.81;5057795;28;45826;-65
2021/07/19 08:05:33;;;;;;;;;8.00;8.00;;;;;26.19;46.56;101281.41;5020718;28;45435;-64
2021/07/19 08:07:59;;;;;;;;;10.67;10.67;;;;;26.22;46.45;101276.72;5046217;28;45415;-68
2021/07/19 08:10:25;;;;;;;;;10.00;9.67;;;;;26.23;46.23;101285.78;5057606;28;45430;-64
2021/07/19 08:12:51;;;;;;;;;10.00;9.00;;;;;26.21;46.16;101280.38;5058134;28;46533;-65
2021/07/19 08:15:17;;;;;;;;;8.67;8.67;;;;;26.22;46.16;101276.72;5048767;28;45446;-63
2021/07/19 08:17:43;;;;;;;;;8.67;8.67;;;;;26.22;45.73;101275.81;5057366;28;45498;-64
2021/07/19 08:20:10;;;;;;;;;11.67;10.00;;;;;26.19;45.51;101282.28;5058656;28;45729;-64
2021/07/19 08:22:35;;;;;;;;;12.00;10.67;;;;;26.19;45.35;101284.16;5041096;28;46124;-64
2021/07/19 08:25:01;;;;;;;;;9.00;9.00;;;;;26.18;45.29;101279.63;5060616;28;45358;-65
2021/07/19 08:27:26;;;;;;;;;8.33;8.33;;;;;26.23;45.21;101280.34;5057681;28;45349;-65
2021/07/19 08:29:53;;;;;;;;;7.67;7.67;;;;;26.29;45.14;101269.16;5042736;28;45367;-65
2021/07/19 08:32:19;;;;;;;;;6.00;6.00;;;;;26.34;45.00;101275.31;5060472;28;45398;-64
2021/07/19 08:34:46;;;;;;;;;11.00;9.33;;;;;26.42;44.90;101267.69;5040548;28;45417;-64
2021/07/19 08:37:12;;;;;;;;;8.00;7.67;;;;;26.49;44.83;101274.63;5046177;28;45548;-63
2021/07/19 08:39:40;;;;;;;;;7.33;6.33;;;;;26.57;44.60;101273.41;5065430;28;45374;-65
2021/07/19 08:42:09;;;;;;;;;8.00;8.00;;;;;26.62;44.83;101274.13;5057158;28;45420;-63
2021/07/19 08:44:47;;;;;;;;;7.33;6.67;;;;;26.66;44.52;101275.75;5078362;28;45366;-64
2021/07/19 08:47:18;;;;;;;;;12.00;9.67;;;;;26.66;43.87;101273.03;5052276;28;45923;-65
2021/07/19 08:49:43;;;;;;;;;11.00;11.00;;;;;26.66;44.36;101268.47;5053128;28;45410;-64
2021/07/19 08:52:32;;;;;;;;;10.00;7.00;;;;;26.69;43.91;101275.63;5057246;28;45498;-65
2021/07/19 08:55:11;;;;;;;;;10.00;10.00;;;;;26.70;44.00;101269.19;5053942;28;45619;-65
2021/07/19 08:57:40;;;;;;;;;7.67;7.00;;;;;26.71;44.22;101271.00;5037657;28;45426;-64
2021/07/19 09:00:08;;;;;;;;;6.33;6.33;;;;;26.73;44.17;101261.78;5053249;28;45487;-64
2021/07/19 09:02:35;;;;;;;;;9.00;9.00;;;;;26.79;43.56;101260.63;5043078;28;46201;-65
2021/07/19 09:05:01;;;;;;;;;9.33;8.67;;;;;26.85;43.67;101270.38;5050715;28;45463;-65
2021/07/19 09:07:26;;;;;;;;;6.67;6.67;;;;;26.91;43.96;101270.97;5056365;28;45434;-64
2021/07/19 09:09:52;;;;;;;;;7.33;6.33;;;;;26.98;43.50;101268.84;5046637;28;45335;-64
2021/07/19 09:12:32;;;;;;;;;7.00;7.00;;;;;27.05;43.62;101264.88;5049409;28;46330;-64
2021/07/19 09:15:04;;;;;;;;;8.33;7.00;;;;;27.08;43.32;101263.84;5050894;28;45770;-65
2021/07/19 09:17:29;;;;;;;;;9.00;9.00;;;;;27.11;43.53;101260.97;5063474;28;45721;-64
2021/07/19 09:19:58;;;;;;;;;9.67;9.33;;;;;27.17;43.43;101259.78;5056189;28;45457;-65
2021/07/19 09:22:32;;;;;;;;;8.67;7.00;;;;;27.19;43.17;101261.50;5037763;28;48001;-63
2021/07/19 09:25:06;;;;;;;;;8.67;8.33;;;;;27.22;42.73;101252.28;5056670;28;45401;-65
2021/07/19 09:27:32;;;;;;;;;8.00;8.00;;;;;27.19;42.31;101250.56;5056014;28;45502;-64
2021/07/19 09:29:57;;;;;;;;;8.67;8.67;;;;;27.17;42.47;101259.78;5055675;28;45393;-63
2021/07/19 09:32:23;;;;;;;;;10.67;10.67;;;;;27.16;42.81;101256.16;5055739;28;46172;-64
2021/07/19 09:34:49;;;;;;;;;6.67;6.67;;;;;27.18;42.76;101254.25;5056516;28;45552;-64
2021/07/19 09:37:14;;;;;;;;;7.33;6.67;;;;;27.25;42.86;101257.63;5054545;28;45453;-65
2021/07/19 09:39:43;;;;;;;;;6.67;6.67;;;;;27.28;42.65;101252.88;5054878;28;45907;-65
2021/07/19 09:42:14;;;;;;;;;7.67;7.67;;;;;27.31;42.05;101252.75;5055523;28;46246;-64
2021/07/19 09:44:41;;;;;;;;;10.67;8.33;;;;;27.29;42.00;101251.94;5055443;28;45473;-65
2021/07/19 09:47:12;;;;;;;;;8.00;7.00;;;;;27.30;42.04;101245.50;5037069;28;45457;-64
2021/07/19 09:49:38;;;;;;;;;11.00;8.67;;;;;27.31;42.03;101246.41;5037734;28;45500;-63
2021/07/19 09:52:09;;;;;;;;;11.00;8.00;;;;;27.33;42.16;101250.84;5054367;28;45764;-63
2021/07/19 09:54:46;;;;;;;;;8.00;7.00;;;;;27.32;42.19;101249.06;5037368;28;45828;-64
2021/07/19 09:57:14;;;;;;;;;8.67;8.33;;;;;27.38;41.74;101241.53;5055030;28;45558;-66
2021/07/19 09:59:52;;;;;;;;;7.00;7.00;;;;;27.43;41.81;101239.44;5053568;28;45488;-65
2021/07/19 10:02:29;;;;;;;;;10.00;8.00;;;;;27.50;41.70;101240.94;5054727;28;45812;-64
2021/07/19 10:04:55;;;;;;;;;8.33;8.33;;;;;27.53;41.54;101238.94;5054967;28;45405;-65
2021/07/19 10:07:24;;;;;;;;;8.00;7.00;;;;;27.56;41.92;101235.16;5055221;28;45883;-64
2021/07/19 10:09:53;;;;;;;;;8.67;7.00;;;;;27.63;41.57;101227.53;5055098;28;45519;-66
2021/07/19 10:12:20;;;;;;;;;9.33;9.33;;;;;27.66;40.87;101231.00;5055159;28;45428;-65
2021/07/19 10:14:48;;;;;;;;;9.00;9.00;;;;;27.68;41.27;101231.81;5055482;28;45569;-65
2021/07/19 10:17:14;;;;;;;;;9.33;9.33;;;;;27.72;41.64;101236.19;5054796;28;45417;-65
2021/07/19 10:19:41;;;;;;;;;12.33;11.33;;;;;27.78;41.50;101234.13;5054404;28;45769;-65
2021/07/19 10:22:09;;;;;;;;;9.00;8.50;;;;;27.80;41.03;101226.72;5054841;28;45407;-65
2021/07/19 10:24:40;;;;;;;;;11.00;10.00;;;;;27.80;41.29;101233.06;5036589;28;45520;-65
2021/07/19 10:27:05;;;;;;;;;8.00;8.00;;;;;27.77;41.31;101226.84;5055080;28;45478;-63
2021/07/19 10:29:31;;;;;;;;;9.00;9.00;;;;;27.78;41.07;101234.13;5054359;28;45364;-64
2021/07/19 10:31:56;;;;;;;;;9.33;9.33;;;;;27.84;41.04;101228.34;5054680;28;45445;-65
2021/07/19 10:34:22;;;;;;;;;10.00;9.33;;;;;27.84;41.38;101239.28;5035196;28;45351;-65
2021/07/19 10:36:48;;;;;;;;;10.00;8.67;;;;;27.86;41.30;101231.88;5028194;28;45942;-64
2021/07/19 10:39:35;;;;;;;;;10.67;10.33;;;;;27.84;40.49;101231.94;5054394;28;45334;-65
2021/07/19 10:42:09;;;;;;;;;12.00;10.00;;;;;27.89;40.88;101227.16;5053778;28;45711;-65
2021/07/19 10:44:37;;;;;;;;;10.67;9.00;;;;;27.96;41.24;101233.22;5054732;28;45369;-65
2021/07/19 10:47:17;;;;;;;;;7.00;7.00;;;;;27.96;40.77;101221.41;5054851;28;45528;-65
2021/07/19 10:50:00;;;;;;;;;8.67;8.67;;;;;28.02;40.48;101213.75;5057443;28;45444;-65
2021/07/19 10:52:36;;;;;;;;;6.67;6.67;;;;;28.07;40.29;101211.66;5057539;28;46747;-66
2021/07/19 10:55:02;;;;;;;;;9.00;9.00;;;;;28.10;40.89;101206.03;5057966;28;45362;-65
2021/07/19 10:57:35;;;;;;;;;10.00;8.33;;;;;28.10;40.66;101203.31;5039713;28;45925;-65
2021/07/19 11:00:04;;;;;;;;;10.00;10.00;;;;;28.09;40.21;101211.59;5057040;28;45505;-65
2021/07/19 11:02:31;;;;;;;;;9.00;7.00;;;;;28.08;40.84;101215.28;5057835;28;46151;-65
2021/07/19 11:04:56;;;;;;;;;7.33;6.67;;;;;28.08;40.30;101213.44;5051661;28;45508;-65
2021/07/19 11:07:25;;;;;;;;;10.00;8.67;;;;;28.08;40.47;101202.50;5037467;28;45457;-65
2021/07/19 11:09:52;;;;;;;;;10.00;10.00;;;;;28.07;40.85;101195.25;5019705;28;45522;-64
2021/07/19 11:12:17;;;;;;;;;10.00;8.33;;;;;28.08;40.28;101198.88;5037524;28;45679;-65
2021/07/19 11:14:46;;;;;;;;;7.67;7.67;;;;;28.07;39.71;101199.84;5038058;28;45800;-64
2021/07/19 11:17:13;;;;;;;;;10.33;9.00;;;;;28.09;39.63;101200.66;5038057;28;45465;-64
2021/07/19 11:19:39;;;;;;;;;7.67;7.67;;;;;28.08;39.82;101205.22;5037387;28;45394;-64
2021/07/19 11:22:31;;;;;;;;;9.67;9.67;;;;;28.11;39.59;101204.19;5037414;28;46082;-64
2021/07/19 11:25:11;;;;;;;;;11.00;11.00;;;;;28.15;39.84;101210.38;5034363;28;45384;-64